sensor_id;sensor_type;location;lat;lon;timestamp;P1;durP1;ratioP1;P2;durP2;ratioP2
18738;SDS011;9498;51.862;19.460;2022-11-13T00:00:02;92.10;;;31.87;;
18738;SDS011;9498;51.862;19.460;2022-11-13T00:02:31;86.73;;;31.10;;
18738;SDS011;9498;51.862;19.460;2022-11-13T00:04:59;87.87;;;31.97;;
18738;SDS011;9498;51.862;19.460;2022-11-13T00:07:26;97.33;;;34.37;;
18738;SDS011;9498;51.862;19.460;2022-11-13T00:09:53;90.27;;;31.70;;
18738;SDS011;9498;51.862;19.460;2022-11-13T00:12:22;90.60;;;31.10;;
18738;SDS011;9498;51.862;19.460;2022-11-13T00:14:49;91.53;;;33.43;;
18738;SDS011;9498;51.862;19.460;2022-11-13T00:17:16;91.20;;;30.53;;
18738;SDS011;9498;51.862;19.460;2022-11-13T00:19:44;83.70;;;30.87;;
18738;SDS011;9498;51.862;19.460;2022-11-13T00:22:11;102.20;;;32.23;;
18738;SDS011;9498;51.862;19.460;2022-11-13T00:24:38;92.17;;;31.90;;
18738;SDS011;9498;51.862;19.460;2022-11-13T00:27:05;88.60;;;32.60;;
18738;SDS011;9498;51.862;19.460;2022-11-13T00:29:34;94.00;;;31.33;;
18738;SDS011;9498;51.862;19.460;2022-11-13T00:32:01;96.80;;;31.97;;
18738;SDS011;9498;51.862;19.460;2022-11-13T00:34:28;104.03;;;33.17;;
18738;SDS011;9498;51.862;19.460;2022-11-13T00:36:56;99.20;;;31.53;;
18738;SDS011;9498;51.862;19.460;2022-11-13T00:39:23;94.00;;;32.63;;
18738;SDS011;9498;51.862;19.460;2022-11-13T00:41:50;90.30;;;32.80;;
18738;SDS011;9498;51.862;19.460;2022-11-13T00:44:17;100.53;;;33.70;;
18738;SDS011;9498;51.862;19.460;2022-11-13T00:46:46;101.37;;;34.23;;
18738;SDS011;9498;51.862;19.460;2022-11-13T00:49:13;103.13;;;32.87;;
18738;SDS011;9498;51.862;19.460;2022-11-13T00:51:41;111.43;;;34.83;;
18738;SDS011;9498;51.862;19.460;2022-11-13T00:54:08;102.50;;;35.07;;
18738;SDS011;9498;51.862;19.460;2022-11-13T00:56:36;104.77;;;35.60;;
18738;SDS011;9498;51.862;19.460;2022-11-13T00:59:03;109.03;;;35.50;;
18738;SDS011;9498;51.862;19.460;2022-11-13T01:01:30;108.17;;;34.63;;
18738;SDS011;9498;51.862;19.460;2022-11-13T01:03:59;104.93;;;35.30;;
18738;SDS011;9498;51.862;19.460;2022-11-13T01:06:26;105.67;;;34.70;;
18738;SDS011;9498;51.862;19.460;2022-11-13T01:08:54;112.63;;;35.83;;
18738;SDS011;9498;51.862;19.460;2022-11-13T01:11:22;111.83;;;34.87;;
18738;SDS011;9498;51.862;19.460;2022-11-13T01:13:50;115.23;;;35.73;;
18738;SDS011;9498;51.862;19.460;2022-11-13T01:16:19;120.23;;;37.43;;
18738;SDS011;9498;51.862;19.460;2022-11-13T01:18:46;124.10;;;37.93;;
18738;SDS011;9498;51.862;19.460;2022-11-13T01:21:16;122.27;;;37.90;;
18738;SDS011;9498;51.862;19.460;2022-11-13T01:23:44;121.90;;;38.77;;
18738;SDS011;9498;51.862;19.460;2022-11-13T01:26:12;122.63;;;39.77;;
18738;SDS011;9498;51.862;19.460;2022-11-13T01:28:39;136.35;;;45.03;;
18738;SDS011;9498;51.862;19.460;2022-11-13T01:31:07;126.23;;;40.30;;
18738;SDS011;9498;51.862;19.460;2022-11-13T01:33:35;119.37;;;38.17;;
18738;SDS011;9498;51.862;19.460;2022-11-13T01:36:04;114.50;;;38.13;;
18738;SDS011;9498;51.862;19.460;2022-11-13T01:38:33;119.03;;;38.00;;
18738;SDS011;9498;51.862;19.460;2022-11-13T01:41:00;111.13;;;36.03;;
18738;SDS011;9498;51.862;19.460;2022-11-13T01:43:29;121.63;;;37.13;;
18738;SDS011;9498;51.862;19.460;2022-11-13T01:46:04;117.47;;;37.37;;
18738;SDS011;9498;51.862;19.460;2022-11-13T01:48:33;121.20;;;35.27;;
18738;SDS011;9498;51.862;19.460;2022-11-13T01:51:02;113.17;;;35.63;;
18738;SDS011;9498;51.862;19.460;2022-11-13T01:53:29;113.83;;;35.67;;
18738;SDS011;9498;51.862;19.460;2022-11-13T01:55:58;121.47;;;36.20;;
18738;SDS011;9498;51.862;19.460;2022-11-13T01:58:25;111.73;;;33.63;;
18738;SDS011;9498;51.862;19.460;2022-11-13T02:00:53;120.73;;;36.63;;
18738;SDS011;9498;51.862;19.460;2022-11-13T02:03:20;120.20;;;35.53;;
18738;SDS011;9498;51.862;19.460;2022-11-13T02:05:48;118.37;;;36.17;;
18738;SDS011;9498;51.862;19.460;2022-11-13T02:08:15;116.80;;;34.53;;
18738;SDS011;9498;51.862;19.460;2022-11-13T02:10:42;114.70;;;34.70;;
18738;SDS011;9498;51.862;19.460;2022-11-13T02:13:11;116.00;;;35.03;;
18738;SDS011;9498;51.862;19.460;2022-11-13T02:15:38;143.23;;;42.42;;
18738;SDS011;9498;51.862;19.460;2022-11-13T02:18:06;121.57;;;37.33;;
18738;SDS011;9498;51.862;19.460;2022-11-13T02:20:34;111.17;;;36.07;;
18738;SDS011;9498;51.862;19.460;2022-11-13T02:23:08;113.73;;;34.03;;
18738;SDS011;9498;51.862;19.460;2022-11-13T02:25:39;118.93;;;34.90;;
18738;SDS011;9498;51.862;19.460;2022-11-13T02:28:06;111.63;;;32.80;;
18738;SDS011;9498;51.862;19.460;2022-11-13T02:30:33;114.80;;;32.70;;
18738;SDS011;9498;51.862;19.460;2022-11-13T02:33:01;114.17;;;33.03;;
18738;SDS011;9498;51.862;19.460;2022-11-13T02:35:30;183.07;;;52.13;;
18738;SDS011;9498;51.862;19.460;2022-11-13T02:37:59;125.17;;;37.87;;
18738;SDS011;9498;51.862;19.460;2022-11-13T02:40:27;143.40;;;37.90;;
18738;SDS011;9498;51.862;19.460;2022-11-13T02:42:56;118.73;;;34.33;;
18738;SDS011;9498;51.862;19.460;2022-11-13T02:45:23;138.35;;;40.50;;
18738;SDS011;9498;51.862;19.460;2022-11-13T02:47:50;138.03;;;37.13;;
18738;SDS011;9498;51.862;19.460;2022-11-13T02:50:17;125.30;;;35.00;;
18738;SDS011;9498;51.862;19.460;2022-11-13T02:52:45;131.10;;;36.63;;
18738;SDS011;9498;51.862;19.460;2022-11-13T02:55:12;120.40;;;34.63;;
18738;SDS011;9498;51.862;19.460;2022-11-13T02:57:40;129.47;;;33.77;;
18738;SDS011;9498;51.862;19.460;2022-11-13T03:00:09;116.37;;;32.93;;
18738;SDS011;9498;51.862;19.460;2022-11-13T03:02:37;113.63;;;33.90;;
18738;SDS011;9498;51.862;19.460;2022-11-13T03:05:04;103.47;;;32.37;;
18738;SDS011;9498;51.862;19.460;2022-11-13T03:07:32;107.53;;;32.07;;
18738;SDS011;9498;51.862;19.460;2022-11-13T03:09:59;104.50;;;30.80;;
18738;SDS011;9498;51.862;19.460;2022-11-13T03:12:26;112.10;;;31.83;;
18738;SDS011;9498;51.862;19.460;2022-11-13T03:14:53;108.87;;;30.37;;
18738;SDS011;9498;51.862;19.460;2022-11-13T03:17:22;115.67;;;32.33;;
18738;SDS011;9498;51.862;19.460;2022-11-13T03:19:49;107.60;;;31.03;;
18738;SDS011;9498;51.862;19.460;2022-11-13T03:22:16;106.83;;;30.23;;
18738;SDS011;9498;51.862;19.460;2022-11-13T03:24:44;102.37;;;29.13;;
18738;SDS011;9498;51.862;19.460;2022-11-13T03:27:11;99.37;;;30.30;;
18738;SDS011;9498;51.862;19.460;2022-11-13T03:29:38;94.47;;;29.80;;
18738;SDS011;9498;51.862;19.460;2022-11-13T03:32:05;100.60;;;28.50;;
18738;SDS011;9498;51.862;19.460;2022-11-13T03:34:34;92.20;;;27.97;;
18738;SDS011;9498;51.862;19.460;2022-11-13T03:37:02;103.27;;;30.30;;
18738;SDS011;9498;51.862;19.460;2022-11-13T03:39:29;97.60;;;29.20;;
18738;SDS011;9498;51.862;19.460;2022-11-13T03:41:57;97.87;;;29.90;;
18738;SDS011;9498;51.862;19.460;2022-11-13T03:44:24;92.57;;;29.10;;
18738;SDS011;9498;51.862;19.460;2022-11-13T03:46:51;105.80;;;34.97;;
18738;SDS011;9498;51.862;19.460;2022-11-13T03:49:18;89.57;;;29.57;;
18738;SDS011;9498;51.862;19.460;2022-11-13T03:51:47;89.23;;;29.10;;
18738;SDS011;9498;51.862;19.460;2022-11-13T03:54:14;93.30;;;28.97;;
18738;SDS011;9498;51.862;19.460;2022-11-13T03:56:41;85.87;;;27.03;;
18738;SDS011;9498;51.862;19.460;2022-11-13T03:59:09;84.83;;;27.87;;
18738;SDS011;9498;51.862;19.460;2022-11-13T04:01:36;87.77;;;27.27;;
18738;SDS011;9498;51.862;19.460;2022-11-13T04:04:03;81.47;;;25.20;;
18738;SDS011;9498;51.862;19.460;2022-11-13T04:06:30;83.07;;;26.20;;
18738;SDS011;9498;51.862;19.460;2022-11-13T04:08:59;81.80;;;26.27;;
18738;SDS011;9498;51.862;19.460;2022-11-13T04:11:26;80.70;;;24.97;;
18738;SDS011;9498;51.862;19.460;2022-11-13T04:13:53;82.23;;;25.47;;
18738;SDS011;9498;51.862;19.460;2022-11-13T04:16:21;76.47;;;25.03;;
18738;SDS011;9498;51.862;19.460;2022-11-13T04:18:48;80.50;;;24.33;;
18738;SDS011;9498;51.862;19.460;2022-11-13T04:21:15;83.37;;;25.13;;
18738;SDS011;9498;51.862;19.460;2022-11-13T04:23:42;71.03;;;24.73;;
18738;SDS011;9498;51.862;19.460;2022-11-13T04:26:11;76.40;;;25.13;;
18738;SDS011;9498;51.862;19.460;2022-11-13T04:28:38;87.20;;;26.37;;
18738;SDS011;9498;51.862;19.460;2022-11-13T04:31:06;81.70;;;25.17;;
18738;SDS011;9498;51.862;19.460;2022-11-13T04:33:33;83.87;;;25.37;;
18738;SDS011;9498;51.862;19.460;2022-11-13T04:36:00;83.53;;;26.07;;
18738;SDS011;9498;51.862;19.460;2022-11-13T04:38:27;79.23;;;24.13;;
18738;SDS011;9498;51.862;19.460;2022-11-13T04:40:55;75.13;;;23.80;;
18738;SDS011;9498;51.862;19.460;2022-11-13T04:43:37;81.43;;;25.23;;
18738;SDS011;9498;51.862;19.460;2022-11-13T04:46:04;79.27;;;24.77;;
18738;SDS011;9498;51.862;19.460;2022-11-13T04:48:31;91.57;;;30.17;;
18738;SDS011;9498;51.862;19.460;2022-11-13T04:50:59;84.20;;;25.47;;
18738;SDS011;9498;51.862;19.460;2022-11-13T04:53:26;80.13;;;25.10;;
18738;SDS011;9498;51.862;19.460;2022-11-13T04:55:53;77.83;;;23.57;;
18738;SDS011;9498;51.862;19.460;2022-11-13T04:58:20;80.13;;;24.40;;
18738;SDS011;9498;51.862;19.460;2022-11-13T05:00:49;74.57;;;22.97;;
18738;SDS011;9498;51.862;19.460;2022-11-13T05:03:16;72.27;;;24.07;;
18738;SDS011;9498;51.862;19.460;2022-11-13T05:05:43;90.07;;;24.33;;
18738;SDS011;9498;51.862;19.460;2022-11-13T05:08:11;80.03;;;24.03;;
18738;SDS011;9498;51.862;19.460;2022-11-13T05:10:38;79.73;;;23.97;;
18738;SDS011;9498;51.862;19.460;2022-11-13T05:13:05;83.13;;;24.57;;
18738;SDS011;9498;51.862;19.460;2022-11-13T05:15:32;78.57;;;23.27;;
18738;SDS011;9498;51.862;19.460;2022-11-13T05:18:01;67.03;;;22.30;;
18738;SDS011;9498;51.862;19.460;2022-11-13T05:20:28;78.47;;;23.37;;
18738;SDS011;9498;51.862;19.460;2022-11-13T05:22:55;82.67;;;23.37;;
18738;SDS011;9498;51.862;19.460;2022-11-13T05:25:23;75.30;;;24.30;;
18738;SDS011;9498;51.862;19.460;2022-11-13T05:27:50;80.53;;;24.17;;
18738;SDS011;9498;51.862;19.460;2022-11-13T05:30:17;84.67;;;24.17;;
18738;SDS011;9498;51.862;19.460;2022-11-13T05:32:44;84.13;;;24.83;;
18738;SDS011;9498;51.862;19.460;2022-11-13T05:35:13;75.20;;;24.70;;
18738;SDS011;9498;51.862;19.460;2022-11-13T05:37:40;80.30;;;24.60;;
18738;SDS011;9498;51.862;19.460;2022-11-13T05:40:08;81.57;;;24.73;;
18738;SDS011;9498;51.862;19.460;2022-11-13T05:42:35;77.80;;;24.00;;
18738;SDS011;9498;51.862;19.460;2022-11-13T05:45:03;73.93;;;23.80;;
18738;SDS011;9498;51.862;19.460;2022-11-13T05:47:31;82.27;;;23.03;;
18738;SDS011;9498;51.862;19.460;2022-11-13T05:49:58;72.50;;;22.30;;
18738;SDS011;9498;51.862;19.460;2022-11-13T05:52:27;78.57;;;23.87;;
18738;SDS011;9498;51.862;19.460;2022-11-13T05:54:54;81.17;;;23.97;;
18738;SDS011;9498;51.862;19.460;2022-11-13T05:57:21;79.40;;;23.83;;
18738;SDS011;9498;51.862;19.460;2022-11-13T05:59:48;72.60;;;23.73;;
18738;SDS011;9498;51.862;19.460;2022-11-13T06:02:15;80.63;;;24.63;;
18738;SDS011;9498;51.862;19.460;2022-11-13T06:04:43;80.33;;;24.23;;
18738;SDS011;9498;51.862;19.460;2022-11-13T06:07:10;67.57;;;21.87;;
18738;SDS011;9498;51.862;19.460;2022-11-13T06:09:38;74.03;;;22.50;;
18738;SDS011;9498;51.862;19.460;2022-11-13T06:12:06;83.20;;;25.43;;
18738;SDS011;9498;51.862;19.460;2022-11-13T06:14:33;80.03;;;24.13;;
18738;SDS011;9498;51.862;19.460;2022-11-13T06:17:00;83.20;;;25.23;;
18738;SDS011;9498;51.862;19.460;2022-11-13T06:19:28;95.27;;;28.23;;
18738;SDS011;9498;51.862;19.460;2022-11-13T06:21:55;99.97;;;32.47;;
18738;SDS011;9498;51.862;19.460;2022-11-13T06:24:22;88.73;;;27.63;;
18738;SDS011;9498;51.862;19.460;2022-11-13T06:26:51;116.73;;;34.73;;
18738;SDS011;9498;51.862;19.460;2022-11-13T06:29:18;87.37;;;28.20;;
18738;SDS011;9498;51.862;19.460;2022-11-13T06:31:46;94.70;;;28.40;;
18738;SDS011;9498;51.862;19.460;2022-11-13T06:34:13;87.50;;;27.60;;
18738;SDS011;9498;51.862;19.460;2022-11-13T06:36:40;86.53;;;24.17;;
18738;SDS011;9498;51.862;19.460;2022-11-13T06:39:07;75.80;;;24.33;;
18738;SDS011;9498;51.862;19.460;2022-11-13T06:41:36;81.90;;;24.20;;
18738;SDS011;9498;51.862;19.460;2022-11-13T06:44:04;77.50;;;24.20;;
18738;SDS011;9498;51.862;19.460;2022-11-13T06:46:32;78.33;;;23.73;;
18738;SDS011;9498;51.862;19.460;2022-11-13T06:48:59;84.70;;;24.50;;
18738;SDS011;9498;51.862;19.460;2022-11-13T06:51:27;82.57;;;23.43;;
18738;SDS011;9498;51.862;19.460;2022-11-13T06:53:54;85.67;;;23.63;;
18738;SDS011;9498;51.862;19.460;2022-11-13T06:56:22;74.07;;;23.93;;
18738;SDS011;9498;51.862;19.460;2022-11-13T06:58:49;78.33;;;24.43;;
18738;SDS011;9498;51.862;19.460;2022-11-13T07:01:20;79.73;;;25.53;;
18738;SDS011;9498;51.862;19.460;2022-11-13T07:03:47;140.07;;;42.13;;
18738;SDS011;9498;51.862;19.460;2022-11-13T07:06:15;94.90;;;29.13;;
18738;SDS011;9498;51.862;19.460;2022-11-13T07:08:43;83.97;;;25.07;;
18738;SDS011;9498;51.862;19.460;2022-11-13T07:11:11;64.80;;;20.90;;
18738;SDS011;9498;51.862;19.460;2022-11-13T07:13:39;68.63;;;22.77;;
18738;SDS011;9498;51.862;19.460;2022-11-13T07:16:07;64.37;;;21.00;;
18738;SDS011;9498;51.862;19.460;2022-11-13T07:18:36;78.47;;;23.23;;
18738;SDS011;9498;51.862;19.460;2022-11-13T07:21:03;52.27;;;18.40;;
18738;SDS011;9498;51.862;19.460;2022-11-13T07:23:31;51.17;;;17.43;;
18738;SDS011;9498;51.862;19.460;2022-11-13T07:26:01;43.30;;;15.47;;
18738;SDS011;9498;51.862;19.460;2022-11-13T07:28:28;44.07;;;14.37;;
18738;SDS011;9498;51.862;19.460;2022-11-13T07:30:55;39.17;;;13.97;;
18738;SDS011;9498;51.862;19.460;2022-11-13T07:33:23;36.40;;;13.30;;
18738;SDS011;9498;51.862;19.460;2022-11-13T07:35:53;38.40;;;14.00;;
18738;SDS011;9498;51.862;19.460;2022-11-13T07:38:20;43.63;;;14.03;;
18738;SDS011;9498;51.862;19.460;2022-11-13T07:40:47;39.57;;;14.63;;
18738;SDS011;9498;51.862;19.460;2022-11-13T07:43:14;40.17;;;13.47;;
18738;SDS011;9498;51.862;19.460;2022-11-13T07:45:42;36.27;;;12.90;;
18738;SDS011;9498;51.862;19.460;2022-11-13T07:48:09;43.10;;;14.13;;
18738;SDS011;9498;51.862;19.460;2022-11-13T07:50:36;42.73;;;13.97;;
18738;SDS011;9498;51.862;19.460;2022-11-13T07:53:06;39.33;;;13.70;;
18738;SDS011;9498;51.862;19.460;2022-11-13T07:55:34;36.00;;;12.20;;
18738;SDS011;9498;51.862;19.460;2022-11-13T07:58:01;35.77;;;11.43;;
18738;SDS011;9498;51.862;19.460;2022-11-13T08:00:30;28.07;;;10.40;;
18738;SDS011;9498;51.862;19.460;2022-11-13T08:03:02;25.40;;;9.50;;
18738;SDS011;9498;51.862;19.460;2022-11-13T08:05:30;27.00;;;10.70;;
18738;SDS011;9498;51.862;19.460;2022-11-13T08:07:57;23.40;;;9.70;;
18738;SDS011;9498;51.862;19.460;2022-11-13T08:10:26;37.13;;;12.13;;
18738;SDS011;9498;51.862;19.460;2022-11-13T08:12:57;29.27;;;8.73;;
18738;SDS011;9498;51.862;19.460;2022-11-13T08:15:24;19.48;;;8.10;;
18738;SDS011;9498;51.862;19.460;2022-11-13T08:17:52;25.80;;;9.43;;
18738;SDS011;9498;51.862;19.460;2022-11-13T08:20:20;27.33;;;9.33;;
18738;SDS011;9498;51.862;19.460;2022-11-13T08:22:47;29.53;;;10.03;;
18738;SDS011;9498;51.862;19.460;2022-11-13T08:25:14;27.42;;;10.60;;
18738;SDS011;9498;51.862;19.460;2022-11-13T08:27:43;18.77;;;8.23;;
18738;SDS011;9498;51.862;19.460;2022-11-13T08:30:11;19.07;;;8.10;;
18738;SDS011;9498;51.862;19.460;2022-11-13T08:32:38;17.57;;;8.37;;
18738;SDS011;9498;51.862;19.460;2022-11-13T08:35:06;32.37;;;14.10;;
18738;SDS011;9498;51.862;19.460;2022-11-13T08:37:33;32.43;;;14.63;;
18738;SDS011;9498;51.862;19.460;2022-11-13T08:40:00;22.47;;;8.77;;
18738;SDS011;9498;51.862;19.460;2022-11-13T08:42:29;19.73;;;8.07;;
18738;SDS011;9498;51.862;19.460;2022-11-13T08:44:57;19.30;;;8.03;;
18738;SDS011;9498;51.862;19.460;2022-11-13T08:47:24;20.37;;;8.87;;
18738;SDS011;9498;51.862;19.460;2022-11-13T08:49:52;20.93;;;7.77;;
18738;SDS011;9498;51.862;19.460;2022-11-13T08:52:20;23.43;;;8.43;;
18738;SDS011;9498;51.862;19.460;2022-11-13T08:54:47;37.23;;;12.67;;
18738;SDS011;9498;51.862;19.460;2022-11-13T08:57:14;31.07;;;10.43;;
18738;SDS011;9498;51.862;19.460;2022-11-13T08:59:43;33.60;;;11.37;;
18738;SDS011;9498;51.862;19.460;2022-11-13T09:02:18;51.97;;;18.40;;
18738;SDS011;9498;51.862;19.460;2022-11-13T09:04:49;37.33;;;13.67;;
18738;SDS011;9498;51.862;19.460;2022-11-13T09:07:18;39.73;;;14.27;;
18738;SDS011;9498;51.862;19.460;2022-11-13T09:09:49;38.93;;;13.73;;
18738;SDS011;9498;51.862;19.460;2022-11-13T09:12:19;40.17;;;13.90;;
18738;SDS011;9498;51.862;19.460;2022-11-13T09:14:47;43.67;;;15.47;;
18738;SDS011;9498;51.862;19.460;2022-11-13T09:17:15;49.57;;;16.83;;
18738;SDS011;9498;51.862;19.460;2022-11-13T09:19:43;45.50;;;14.97;;
18738;SDS011;9498;51.862;19.460;2022-11-13T09:22:10;44.43;;;14.90;;
18738;SDS011;9498;51.862;19.460;2022-11-13T09:24:37;44.23;;;14.87;;
18738;SDS011;9498;51.862;19.460;2022-11-13T09:27:05;42.43;;;14.47;;
18738;SDS011;9498;51.862;19.460;2022-11-13T09:29:32;43.67;;;14.17;;
18738;SDS011;9498;51.862;19.460;2022-11-13T09:32:00;39.47;;;14.10;;
18738;SDS011;9498;51.862;19.460;2022-11-13T09:34:28;40.20;;;14.40;;
18738;SDS011;9498;51.862;19.460;2022-11-13T09:36:57;48.73;;;16.73;;
18738;SDS011;9498;51.862;19.460;2022-11-13T09:39:25;53.70;;;18.13;;
18738;SDS011;9498;51.862;19.460;2022-11-13T09:41:53;45.60;;;16.73;;
18738;SDS011;9498;51.862;19.460;2022-11-13T09:44:23;32.90;;;11.13;;
18738;SDS011;9498;51.862;19.460;2022-11-13T09:46:55;35.83;;;12.80;;
18738;SDS011;9498;51.862;19.460;2022-11-13T09:49:26;35.50;;;13.33;;
18738;SDS011;9498;51.862;19.460;2022-11-13T09:51:56;39.87;;;12.70;;
18738;SDS011;9498;51.862;19.460;2022-11-13T09:54:25;36.13;;;13.50;;
18738;SDS011;9498;51.862;19.460;2022-11-13T09:56:55;34.80;;;12.73;;
18738;SDS011;9498;51.862;19.460;2022-11-13T09:59:26;37.73;;;13.60;;
18738;SDS011;9498;51.862;19.460;2022-11-13T10:01:57;40.10;;;15.50;;
18738;SDS011;9498;51.862;19.460;2022-11-13T10:04:31;40.03;;;14.03;;
18738;SDS011;9498;51.862;19.460;2022-11-13T10:07:04;42.20;;;13.67;;
18738;SDS011;9498;51.862;19.460;2022-11-13T10:09:36;38.93;;;14.10;;
18738;SDS011;9498;51.862;19.460;2022-11-13T10:12:05;32.10;;;12.30;;
18738;SDS011;9498;51.862;19.460;2022-11-13T10:14:34;41.60;;;14.37;;
18738;SDS011;9498;51.862;19.460;2022-11-13T10:17:03;37.83;;;12.83;;
18738;SDS011;9498;51.862;19.460;2022-11-13T10:19:35;40.10;;;16.73;;
18738;SDS011;9498;51.862;19.460;2022-11-13T10:22:07;40.13;;;14.47;;
18738;SDS011;9498;51.862;19.460;2022-11-13T10:24:38;32.43;;;12.90;;
18738;SDS011;9498;51.862;19.460;2022-11-13T10:27:07;46.03;;;15.33;;
18738;SDS011;9498;51.862;19.460;2022-11-13T10:29:35;45.13;;;15.73;;
18738;SDS011;9498;51.862;19.460;2022-11-13T10:32:13;47.73;;;17.63;;
18738;SDS011;9498;51.862;19.460;2022-11-13T10:34:41;47.43;;;15.73;;
18738;SDS011;9498;51.862;19.460;2022-11-13T10:37:16;49.37;;;15.60;;
18738;SDS011;9498;51.862;19.460;2022-11-13T10:39:46;46.20;;;15.20;;
18738;SDS011;9498;51.862;19.460;2022-11-13T10:42:19;59.83;;;19.37;;
18738;SDS011;9498;51.862;19.460;2022-11-13T10:44:51;55.20;;;18.33;;
18738;SDS011;9498;51.862;19.460;2022-11-13T10:47:20;50.80;;;17.80;;
18738;SDS011;9498;51.862;19.460;2022-11-13T10:49:47;52.13;;;18.97;;
18738;SDS011;9498;51.862;19.460;2022-11-13T10:52:17;60.20;;;23.03;;
18738;SDS011;9498;51.862;19.460;2022-11-13T10:54:45;64.13;;;24.40;;
18738;SDS011;9498;51.862;19.460;2022-11-13T10:57:21;93.60;;;26.37;;
18738;SDS011;9498;51.862;19.460;2022-11-13T10:59:49;88.60;;;30.83;;
18738;SDS011;9498;51.862;19.460;2022-11-13T11:02:18;66.70;;;23.77;;
18738;SDS011;9498;51.862;19.460;2022-11-13T11:04:45;86.83;;;29.40;;
18738;SDS011;9498;51.862;19.460;2022-11-13T11:07:14;71.93;;;25.43;;
18738;SDS011;9498;51.862;19.460;2022-11-13T11:09:43;70.93;;;22.03;;
18738;SDS011;9498;51.862;19.460;2022-11-13T11:12:12;55.77;;;19.20;;
18738;SDS011;9498;51.862;19.460;2022-11-13T11:14:53;62.70;;;22.03;;
18738;SDS011;9498;51.862;19.460;2022-11-13T11:17:24;63.53;;;19.70;;
18738;SDS011;9498;51.862;19.460;2022-11-13T11:19:54;47.70;;;17.07;;
18738;SDS011;9498;51.862;19.460;2022-11-13T11:22:23;54.27;;;19.83;;
18738;SDS011;9498;51.862;19.460;2022-11-13T11:24:55;60.30;;;20.73;;
18738;SDS011;9498;51.862;19.460;2022-11-13T11:27:24;93.17;;;31.73;;
18738;SDS011;9498;51.862;19.460;2022-11-13T11:29:54;79.30;;;25.70;;
18738;SDS011;9498;51.862;19.460;2022-11-13T11:32:28;48.57;;;18.03;;
18738;SDS011;9498;51.862;19.460;2022-11-13T11:34:58;42.83;;;15.83;;
18738;SDS011;9498;51.862;19.460;2022-11-13T11:37:29;45.13;;;16.63;;
18738;SDS011;9498;51.862;19.460;2022-11-13T11:39:59;51.33;;;20.00;;
18738;SDS011;9498;51.862;19.460;2022-11-13T11:42:29;39.87;;;15.00;;
18738;SDS011;9498;51.862;19.460;2022-11-13T11:45:04;33.27;;;12.80;;
18738;SDS011;9498;51.862;19.460;2022-11-13T11:47:36;40.30;;;13.50;;
18738;SDS011;9498;51.862;19.460;2022-11-13T11:50:05;43.53;;;15.47;;
18738;SDS011;9498;51.862;19.460;2022-11-13T11:52:53;45.40;;;15.80;;
18738;SDS011;9498;51.862;19.460;2022-11-13T11:55:36;47.70;;;17.33;;
18738;SDS011;9498;51.862;19.460;2022-11-13T11:58:12;43.60;;;14.57;;
18738;SDS011;9498;51.862;19.460;2022-11-13T12:00:43;40.13;;;16.23;;
18738;SDS011;9498;51.862;19.460;2022-11-13T12:03:20;37.37;;;13.57;;
18738;SDS011;9498;51.862;19.460;2022-11-13T12:05:56;33.83;;;12.50;;
18738;SDS011;9498;51.862;19.460;2022-11-13T12:08:31;36.93;;;14.27;;
18738;SDS011;9498;51.862;19.460;2022-11-13T12:11:04;45.63;;;16.73;;
18738;SDS011;9498;51.862;19.460;2022-11-13T12:13:35;57.43;;;18.83;;
18738;SDS011;9498;51.862;19.460;2022-11-13T12:16:05;52.87;;;21.20;;
18738;SDS011;9498;51.862;19.460;2022-11-13T12:18:38;47.27;;;17.53;;
18738;SDS011;9498;51.862;19.460;2022-11-13T12:21:14;45.20;;;16.17;;
18738;SDS011;9498;51.862;19.460;2022-11-13T12:23:47;46.17;;;16.70;;
18738;SDS011;9498;51.862;19.460;2022-11-13T12:26:21;54.37;;;19.67;;
18738;SDS011;9498;51.862;19.460;2022-11-13T12:28:52;51.00;;;18.97;;
18738;SDS011;9498;51.862;19.460;2022-11-13T12:31:26;62.93;;;25.37;;
18738;SDS011;9498;51.862;19.460;2022-11-13T12:34:04;50.73;;;17.97;;
18738;SDS011;9498;51.862;19.460;2022-11-13T12:36:33;55.07;;;19.20;;
18738;SDS011;9498;51.862;19.460;2022-11-13T12:39:02;57.57;;;20.23;;
18738;SDS011;9498;51.862;19.460;2022-11-13T12:41:35;69.40;;;23.37;;
18738;SDS011;9498;51.862;19.460;2022-11-13T12:46:46;50.57;;;17.70;;
18738;SDS011;9498;51.862;19.460;2022-11-13T12:49:15;45.93;;;15.43;;
18738;SDS011;9498;51.862;19.460;2022-11-13T12:51:51;35.07;;;12.87;;
18738;SDS011;9498;51.862;19.460;2022-11-13T12:54:23;35.43;;;13.17;;
18738;SDS011;9498;51.862;19.460;2022-11-13T12:56:52;41.23;;;16.00;;
18738;SDS011;9498;51.862;19.460;2022-11-13T12:59:29;46.20;;;15.13;;
18738;SDS011;9498;51.862;19.460;2022-11-13T13:01:59;45.17;;;15.83;;
18738;SDS011;9498;51.862;19.460;2022-11-13T13:04:31;62.73;;;26.00;;
18738;SDS011;9498;51.862;19.460;2022-11-13T13:07:08;48.23;;;18.80;;
18738;SDS011;9498;51.862;19.460;2022-11-13T13:09:41;44.97;;;17.07;;
18738;SDS011;9498;51.862;19.460;2022-11-13T13:12:14;72.07;;;24.17;;
18738;SDS011;9498;51.862;19.460;2022-11-13T13:17:32;42.17;;;15.93;;
18738;SDS011;9498;51.862;19.460;2022-11-13T13:20:00;38.80;;;15.00;;
18738;SDS011;9498;51.862;19.460;2022-11-13T13:22:29;45.83;;;16.13;;
18738;SDS011;9498;51.862;19.460;2022-11-13T13:24:58;44.57;;;15.33;;
18738;SDS011;9498;51.862;19.460;2022-11-13T13:27:27;43.10;;;16.37;;
18738;SDS011;9498;51.862;19.460;2022-11-13T13:29:56;47.07;;;16.07;;
18738;SDS011;9498;51.862;19.460;2022-11-13T13:32:25;94.47;;;42.17;;
18738;SDS011;9498;51.862;19.460;2022-11-13T13:34:56;59.77;;;18.90;;
18738;SDS011;9498;51.862;19.460;2022-11-13T13:37:30;78.13;;;21.80;;
18738;SDS011;9498;51.862;19.460;2022-11-13T13:40:07;45.30;;;15.67;;
18738;SDS011;9498;51.862;19.460;2022-11-13T13:42:44;48.83;;;15.40;;
18738;SDS011;9498;51.862;19.460;2022-11-13T13:45:21;44.00;;;15.70;;
18738;SDS011;9498;51.862;19.460;2022-11-13T13:47:52;50.77;;;16.10;;
18738;SDS011;9498;51.862;19.460;2022-11-13T13:50:21;42.77;;;15.87;;
18738;SDS011;9498;51.862;19.460;2022-11-13T13:52:50;38.57;;;14.67;;
18738;SDS011;9498;51.862;19.460;2022-11-13T13:55:21;42.23;;;17.33;;
18738;SDS011;9498;51.862;19.460;2022-11-13T13:57:52;49.00;;;16.03;;
18738;SDS011;9498;51.862;19.460;2022-11-13T14:00:19;44.27;;;16.53;;
18738;SDS011;9498;51.862;19.460;2022-11-13T14:02:47;44.60;;;17.80;;
18738;SDS011;9498;51.862;19.460;2022-11-13T14:05:26;36.53;;;14.10;;
18738;SDS011;9498;51.862;19.460;2022-11-13T14:07:53;43.23;;;14.03;;
18738;SDS011;9498;51.862;19.460;2022-11-13T14:10:21;106.23;;;39.03;;
18738;SDS011;9498;51.862;19.460;2022-11-13T14:12:49;34.87;;;12.67;;
18738;SDS011;9498;51.862;19.460;2022-11-13T14:15:21;33.80;;;12.83;;
18738;SDS011;9498;51.862;19.460;2022-11-13T14:17:48;30.00;;;12.83;;
18738;SDS011;9498;51.862;19.460;2022-11-13T14:20:16;47.27;;;16.47;;
18738;SDS011;9498;51.862;19.460;2022-11-13T14:22:44;35.33;;;13.40;;
18738;SDS011;9498;51.862;19.460;2022-11-13T14:25:15;36.13;;;13.13;;
18738;SDS011;9498;51.862;19.460;2022-11-13T14:27:44;37.47;;;13.70;;
18738;SDS011;9498;51.862;19.460;2022-11-13T14:30:20;36.03;;;14.40;;
18738;SDS011;9498;51.862;19.460;2022-11-13T14:32:49;39.33;;;13.17;;